CES5129 ZSSS-ZBAD
Flight info
| Callsign | CES5129 |
|---|---|
| Flight time | N/A |
| Altitude | 33100 |
| Route | SASAN W161 VMB A593 DALIM W157 AVBOX |
| Aircraft | B77W/H-SDE2E3FGILRWXY/LB2 |
Departure
| Time | N/A |
|---|---|
| Airport | Shanghai Hongqiao International Airport (ZSSS) |
Arrival
| Time | 2026-04-17 13:01 |
|---|---|
| Airport | Beijing Daxing International Airport (ZBAD) |
| Time | Latitude | Longitude | Altitude | Speed | Heading |
|---|---|---|---|---|---|
| 2026-04-17 12:14 | 35.67753 | 117.48847 | 33098 ft | 484 kts | 335° |
| 2026-04-17 12:14 | 35.70968 | 117.47650 | 33097 ft | 485 kts | 335° |
| 2026-04-17 12:15 | 35.77334 | 117.45278 | 33099 ft | 484 kts | 335° |
| 2026-04-17 12:15 | 35.83866 | 117.42841 | 33104 ft | 481 kts | 336° |
| 2026-04-17 12:16 | 35.90356 | 117.40413 | 33108 ft | 483 kts | 336° |
| 2026-04-17 12:16 | 35.96783 | 117.38005 | 33107 ft | 482 kts | 336° |
| 2026-04-17 12:17 | 36.02544 | 117.35852 | 33099 ft | 481 kts | 336° |
| 2026-04-17 12:17 | 36.09052 | 117.33451 | 33112 ft | 482 kts | 336° |
| 2026-04-17 12:18 | 36.15514 | 117.31065 | 33105 ft | 477 kts | 336° |
| 2026-04-17 12:18 | 36.21904 | 117.28695 | 33099 ft | 482 kts | 336° |
| 2026-04-17 12:19 | 36.28349 | 117.26304 | 33085 ft | 479 kts | 336° |
| 2026-04-17 12:19 | 36.34718 | 117.23936 | 33105 ft | 478 kts | 336° |
| 2026-04-17 12:20 | 36.41148 | 117.21529 | 33090 ft | 475 kts | 335° |
| 2026-04-17 12:20 | 36.46139 | 117.19063 | 33110 ft | 472 kts | 331° |
| 2026-04-17 12:21 | 36.52229 | 117.15891 | 33118 ft | 469 kts | 331° |
| 2026-04-17 12:21 | 36.58108 | 117.12828 | 33096 ft | 465 kts | 331° |
| 2026-04-17 12:22 | 36.64028 | 117.09739 | 33072 ft | 463 kts | 331° |
| 2026-04-17 12:22 | 36.67613 | 117.07866 | 33086 ft | 465 kts | 332° |
| 2026-04-17 12:23 | 36.73595 | 117.04738 | 33066 ft | 464 kts | 332° |
| 2026-04-17 12:23 | 36.79577 | 117.01604 | 33076 ft | 467 kts | 332° |
| 2026-04-17 12:24 | 36.85489 | 116.98511 | 33080 ft | 442 kts | 332° |
| 2026-04-17 12:24 | 36.88279 | 116.97050 | 33069 ft | 426 kts | 332° |
| 2026-04-17 12:24 | 36.90980 | 116.95633 | 33055 ft | 410 kts | 331° |
| 2026-04-17 12:24 | 36.93575 | 116.94270 | 33040 ft | 394 kts | 331° |
| 2026-04-17 12:25 | 36.96075 | 116.92956 | 32994 ft | 379 kts | 331° |
| 2026-04-17 12:25 | 36.98449 | 116.91706 | 32975 ft | 364 kts | 331° |
| 2026-04-17 12:25 | 37.00762 | 116.90487 | 32824 ft | 352 kts | 330° |
| 2026-04-17 12:25 | 37.02998 | 116.89303 | 32339 ft | 350 kts | 331° |
| 2026-04-17 12:26 | 37.05248 | 116.88110 | 31739 ft | 351 kts | 331° |
| 2026-04-17 12:26 | 37.07504 | 116.86915 | 31202 ft | 350 kts | 331° |
| 2026-04-17 12:26 | 37.09716 | 116.85746 | 30790 ft | 345 kts | 332° |
| 2026-04-17 12:26 | 37.11947 | 116.84567 | 30382 ft | 341 kts | 332° |
| 2026-04-17 12:27 | 37.14123 | 116.83415 | 29939 ft | 338 kts | 332° |
| 2026-04-17 12:27 | 37.16283 | 116.82271 | 29485 ft | 336 kts | 332° |
| 2026-04-17 12:27 | 37.18442 | 116.81127 | 29042 ft | 333 kts | 332° |
| 2026-04-17 12:27 | 37.20567 | 116.80000 | 28782 ft | 336 kts | 333° |
| 2026-04-17 12:28 | 37.22833 | 116.78951 | 28554 ft | 358 kts | 338° |
| 2026-04-17 12:28 | 37.25296 | 116.78010 | 28226 ft | 378 kts | 340° |
| 2026-04-17 12:28 | 37.27817 | 116.77070 | 27886 ft | 380 kts | 340° |
| 2026-04-17 12:28 | 37.30352 | 116.76123 | 27549 ft | 377 kts | 340° |
| 2026-04-17 12:29 | 37.32842 | 116.75189 | 27216 ft | 373 kts | 340° |
| 2026-04-17 12:29 | 37.35316 | 116.74259 | 26882 ft | 369 kts | 340° |
| 2026-04-17 12:29 | 37.37792 | 116.73326 | 26545 ft | 367 kts | 341° |
| 2026-04-17 12:29 | 37.40200 | 116.72417 | 26217 ft | 365 kts | 341° |
| 2026-04-17 12:30 | 37.42654 | 116.71488 | 25884 ft | 364 kts | 341° |
| 2026-04-17 12:30 | 37.45050 | 116.70581 | 25555 ft | 361 kts | 341° |
| 2026-04-17 12:30 | 37.47455 | 116.69669 | 25222 ft | 359 kts | 341° |
| 2026-04-17 12:30 | 37.49847 | 116.68762 | 24890 ft | 357 kts | 341° |
| 2026-04-17 12:31 | 37.52212 | 116.67864 | 24548 ft | 354 kts | 341° |
| 2026-04-17 12:31 | 37.54561 | 116.66972 | 24207 ft | 352 kts | 342° |
| 2026-04-17 12:31 | 37.56896 | 116.66084 | 23873 ft | 351 kts | 342° |
| 2026-04-17 12:31 | 37.59208 | 116.65204 | 23536 ft | 349 kts | 342° |
| 2026-04-17 12:32 | 37.61540 | 116.64317 | 23192 ft | 346 kts | 342° |
| 2026-04-17 12:32 | 37.63824 | 116.63446 | 22856 ft | 344 kts | 342° |
| 2026-04-17 12:32 | 37.66103 | 116.62577 | 22517 ft | 343 kts | 342° |
| 2026-04-17 12:32 | 37.68380 | 116.61709 | 22179 ft | 341 kts | 342° |
| 2026-04-17 12:33 | 37.70645 | 116.60844 | 21841 ft | 340 kts | 342° |
| 2026-04-17 12:33 | 37.72907 | 116.59980 | 21504 ft | 338 kts | 342° |
| 2026-04-17 12:33 | 37.75177 | 116.59113 | 21161 ft | 336 kts | 342° |
| 2026-04-17 12:33 | 37.77387 | 116.58267 | 20827 ft | 334 kts | 343° |
| 2026-04-17 12:34 | 37.79598 | 116.57421 | 20493 ft | 332 kts | 343° |
| 2026-04-17 12:34 | 37.81811 | 116.56574 | 20158 ft | 330 kts | 343° |
| 2026-04-17 12:34 | 37.83987 | 116.55740 | 19828 ft | 329 kts | 343° |
| 2026-04-17 12:34 | 37.86193 | 116.54894 | 19491 ft | 327 kts | 343° |
| 2026-04-17 12:35 | 37.88343 | 116.54069 | 19158 ft | 325 kts | 343° |
| 2026-04-17 12:35 | 37.90503 | 116.53241 | 18825 ft | 323 kts | 343° |
| 2026-04-17 12:35 | 37.92647 | 116.52417 | 18494 ft | 322 kts | 343° |
| 2026-04-17 12:35 | 37.94794 | 116.51592 | 18159 ft | 319 kts | 343° |
| 2026-04-17 12:37 | 38.07185 | 116.41641 | 15863 ft | 290 kts | 326° |
| 2026-04-17 12:37 | 38.08805 | 116.40156 | 15536 ft | 287 kts | 326° |
| 2026-04-17 12:38 | 38.10430 | 116.38670 | 15204 ft | 283 kts | 328° |
| 2026-04-17 12:38 | 38.12184 | 116.37677 | 14867 ft | 279 kts | 349° |
| 2026-04-17 12:38 | 38.14052 | 116.37483 | 14558 ft | 278 kts | 359° |
| 2026-04-17 12:38 | 38.15875 | 116.37484 | 14257 ft | 279 kts | 360° |
| 2026-04-17 12:39 | 38.17787 | 116.37496 | 13941 ft | 278 kts | 360° |
| 2026-04-17 12:39 | 38.19709 | 116.37509 | 13622 ft | 275 kts | 360° |
| 2026-04-17 12:39 | 38.21635 | 116.37521 | 13297 ft | 273 kts | 360° |
| 2026-04-17 12:39 | 38.23540 | 116.37534 | 12973 ft | 271 kts | 360° |
| 2026-04-17 12:40 | 38.25408 | 116.37547 | 12752 ft | 268 kts | 360° |
| 2026-04-17 12:40 | 38.27298 | 116.37559 | 12734 ft | 272 kts | 360° |
| 2026-04-17 12:40 | 38.29200 | 116.37572 | 12728 ft | 272 kts | 359° |
| 2026-04-17 12:40 | 38.31107 | 116.37584 | 12730 ft | 272 kts | 360° |
| 2026-04-17 12:41 | 38.33015 | 116.37597 | 12729 ft | 272 kts | 359° |
| 2026-04-17 12:41 | 38.34905 | 116.37609 | 12728 ft | 272 kts | 359° |
| 2026-04-17 12:41 | 38.36814 | 116.37621 | 12725 ft | 272 kts | 359° |
| 2026-04-17 12:41 | 38.38719 | 116.37634 | 12727 ft | 273 kts | 359° |
| 2026-04-17 12:42 | 38.40628 | 116.37646 | 12726 ft | 272 kts | 359° |
| 2026-04-17 12:42 | 38.42527 | 116.37659 | 12724 ft | 271 kts | 359° |
| 2026-04-17 12:42 | 38.44405 | 116.37672 | 12724 ft | 272 kts | 359° |
| 2026-04-17 12:42 | 38.46325 | 116.37685 | 12749 ft | 272 kts | 359° |
| 2026-04-17 12:43 | 38.48226 | 116.37697 | 12576 ft | 273 kts | 359° |
| 2026-04-17 12:43 | 38.50104 | 116.37709 | 12310 ft | 268 kts | 359° |
| 2026-04-17 12:43 | 38.51963 | 116.37722 | 12036 ft | 264 kts | 359° |
| 2026-04-17 12:43 | 38.53801 | 116.37734 | 11763 ft | 260 kts | 359° |
| 2026-04-17 12:44 | 38.54780 | 116.37741 | 11615 ft | 258 kts | 359° |
| 2026-04-17 12:44 | 38.56188 | 116.37750 | 11398 ft | 256 kts | 359° |
| 2026-04-17 12:44 | 38.57982 | 116.37762 | 11125 ft | 256 kts | 359° |
| 2026-04-17 12:44 | 38.59767 | 116.37952 | 10839 ft | 256 kts | 7° |
| 2026-04-17 12:45 | 38.61521 | 116.38309 | 10505 ft | 255 kts | 7° |
| 2026-04-17 12:45 | 38.63286 | 116.38677 | 10134 ft | 256 kts | 7° |
| 2026-04-17 12:45 | 38.65028 | 116.39040 | 9766 ft | 257 kts | 7° |
| 2026-04-17 12:45 | 38.66811 | 116.39412 | 9390 ft | 258 kts | 7° |
| 2026-04-17 12:46 | 38.68582 | 116.39781 | 9018 ft | 259 kts | 7° |
| 2026-04-17 12:46 | 38.70368 | 116.40153 | 8645 ft | 260 kts | 7° |
| 2026-04-17 12:46 | 38.72167 | 116.40530 | 8282 ft | 258 kts | 7° |
| 2026-04-17 12:46 | 38.73924 | 116.40897 | 7919 ft | 257 kts | 7° |
| 2026-04-17 12:47 | 38.75705 | 116.41270 | 7548 ft | 256 kts | 7° |
| 2026-04-17 12:47 | 38.77449 | 116.41634 | 7183 ft | 256 kts | 7° |
| 2026-04-17 12:47 | 38.79204 | 116.42002 | 6896 ft | 251 kts | 7° |
| 2026-04-17 12:47 | 38.80889 | 116.42357 | 6855 ft | 236 kts | 7° |
| 2026-04-17 12:48 | 38.82469 | 116.42691 | 6846 ft | 221 kts | 6° |
| 2026-04-17 12:48 | 38.83967 | 116.43006 | 6849 ft | 214 kts | 6° |
| 2026-04-17 12:48 | 38.85428 | 116.43314 | 6850 ft | 212 kts | 6° |
| 2026-04-17 12:48 | 38.86897 | 116.43620 | 6691 ft | 213 kts | 6° |
| 2026-04-17 12:49 | 38.88365 | 116.43928 | 6446 ft | 212 kts | 6° |
| 2026-04-17 12:49 | 38.89832 | 116.44236 | 6200 ft | 212 kts | 6° |
| 2026-04-17 12:49 | 38.91291 | 116.44541 | 5955 ft | 213 kts | 6° |
| 2026-04-17 12:49 | 38.92747 | 116.44846 | 5710 ft | 213 kts | 7° |
| 2026-04-17 12:50 | 38.94231 | 116.45158 | 5458 ft | 213 kts | 7° |
| 2026-04-17 12:50 | 38.95694 | 116.45464 | 5218 ft | 212 kts | 7° |
| 2026-04-17 12:50 | 38.97160 | 116.45772 | 4973 ft | 212 kts | 7° |
| 2026-04-17 12:50 | 38.98606 | 116.46076 | 4730 ft | 213 kts | 7° |
| 2026-04-17 12:51 | 39.00074 | 116.46384 | 4484 ft | 213 kts | 7° |
| 2026-04-17 12:51 | 39.01533 | 116.46691 | 4238 ft | 213 kts | 7° |
| 2026-04-17 12:51 | 39.03011 | 116.47002 | 3990 ft | 213 kts | 7° |
| 2026-04-17 12:51 | 39.04472 | 116.47310 | 3745 ft | 212 kts | 7° |
| 2026-04-17 12:52 | 39.05931 | 116.47617 | 3502 ft | 213 kts | 7° |
| 2026-04-17 12:52 | 39.07395 | 116.47926 | 3255 ft | 209 kts | 7° |
| 2026-04-17 12:52 | 39.08809 | 116.48225 | 3019 ft | 204 kts | 7° |
| 2026-04-17 12:52 | 39.10184 | 116.48515 | 2969 ft | 202 kts | 7° |
| 2026-04-17 12:53 | 39.11594 | 116.48609 | 2958 ft | 200 kts | 353° |
| 2026-04-17 12:53 | 39.12979 | 116.48408 | 2957 ft | 200 kts | 351° |
| 2026-04-17 12:53 | 39.14301 | 116.48251 | 2953 ft | 194 kts | 352° |
| 2026-04-17 12:53 | 39.15589 | 116.48092 | 2954 ft | 190 kts | 352° |
| 2026-04-17 12:54 | 39.16904 | 116.47904 | 2956 ft | 189 kts | 351° |
| 2026-04-17 12:54 | 39.18229 | 116.47697 | 2958 ft | 188 kts | 351° |
| 2026-04-17 12:54 | 39.19537 | 116.47486 | 2959 ft | 188 kts | 351° |
| 2026-04-17 12:54 | 39.20838 | 116.47274 | 2957 ft | 188 kts | 350° |
| 2026-04-17 12:55 | 39.22122 | 116.47066 | 2958 ft | 188 kts | 351° |
| 2026-04-17 12:55 | 39.23434 | 116.46857 | 2955 ft | 185 kts | 351° |
| 2026-04-17 12:55 | 39.24692 | 116.46658 | 2948 ft | 175 kts | 350° |
| 2026-04-17 12:55 | 39.25874 | 116.46470 | 2954 ft | 169 kts | 350° |
| 2026-04-17 12:56 | 39.26588 | 116.46358 | 2968 ft | 168 kts | 350° |
| 2026-04-17 12:56 | 39.27772 | 116.46172 | 2960 ft | 167 kts | 350° |
| 2026-04-17 12:56 | 39.28934 | 116.45991 | 2956 ft | 167 kts | 350° |
| 2026-04-17 12:56 | 39.30087 | 116.45811 | 2957 ft | 167 kts | 351° |
| 2026-04-17 12:57 | 39.31240 | 116.45631 | 2959 ft | 167 kts | 351° |
| 2026-04-17 12:57 | 39.32408 | 116.45450 | 2946 ft | 169 kts | 351° |
| 2026-04-17 12:57 | 39.33595 | 116.45264 | 2724 ft | 170 kts | 351° |
| 2026-04-17 12:57 | 39.34769 | 116.45079 | 2516 ft | 167 kts | 351° |
| 2026-04-17 12:58 | 39.35894 | 116.44902 | 2306 ft | 160 kts | 351° |
| 2026-04-17 12:58 | 39.36990 | 116.44728 | 2104 ft | 160 kts | 351° |
| 2026-04-17 12:58 | 39.38092 | 116.44556 | 1893 ft | 157 kts | 351° |
| 2026-04-17 12:58 | 39.39178 | 116.44385 | 1684 ft | 158 kts | 352° |
| 2026-04-17 12:59 | 39.40281 | 116.44212 | 1467 ft | 157 kts | 352° |
| 2026-04-17 12:59 | 39.41370 | 116.44041 | 1258 ft | 155 kts | 352° |
| 2026-04-17 12:59 | 39.42436 | 116.43872 | 1050 ft | 152 kts | 353° |
| 2026-04-17 12:59 | 39.43492 | 116.43707 | 844 ft | 151 kts | 353° |
| 2026-04-17 13:00 | 39.44524 | 116.43543 | 643 ft | 150 kts | 353° |
| 2026-04-17 13:00 | 39.45567 | 116.43379 | 438 ft | 149 kts | 353° |
| 2026-04-17 13:00 | 39.46600 | 116.43217 | 245 ft | 147 kts | 353° |
| 2026-04-17 13:00 | 39.47614 | 116.43057 | 97 ft | 138 kts | 354° |
| 2026-04-17 13:01 | 39.48405 | 116.42934 | 97 ft | 94 kts | 353° |
| 2026-04-17 13:01 | 39.48882 | 116.42858 | 97 ft | 38 kts | 353° |
| 2026-04-17 13:01 | 39.49044 | 116.42822 | 97 ft | 19 kts | 345° |
| 2026-04-17 13:01 | 39.49155 | 116.42760 | 97 ft | 15 kts | 330° |
| 2026-04-17 13:02 | 39.49233 | 116.42696 | 97 ft | 11 kts | 327° |
| 2026-04-17 13:02 | 39.49289 | 116.42648 | 97 ft | 8 kts | 326° |
| 2026-04-17 13:02 | 39.49328 | 116.42614 | 97 ft | 5 kts | 326° |
| 2026-04-17 13:02 | 39.49340 | 116.42602 | 97 ft | 2 kts | 326° |
| 2026-04-17 13:03 | 39.49391 | 116.42557 | 97 ft | 14 kts | 326° |
| 2026-04-17 13:03 | 39.49473 | 116.42486 | 97 ft | 12 kts | 326° |
| 2026-04-17 13:03 | 39.49545 | 116.42426 | 97 ft | 11 kts | 337° |
| 2026-04-17 13:03 | 39.49625 | 116.42400 | 97 ft | 11 kts | 353° |
| 2026-04-17 13:04 | 39.49705 | 116.42388 | 97 ft | 11 kts | 354° |
| 2026-04-17 13:04 | 39.49790 | 116.42377 | 97 ft | 13 kts | 354° |
| 2026-04-17 13:04 | 39.49884 | 116.42361 | 97 ft | 13 kts | 353° |
| 2026-04-17 13:04 | 39.49978 | 116.42346 | 97 ft | 13 kts | 353° |
| 2026-04-17 13:05 | 39.50070 | 116.42329 | 97 ft | 13 kts | 352° |
| 2026-04-17 13:05 | 39.50160 | 116.42315 | 97 ft | 12 kts | 354° |
| 2026-04-17 13:05 | 39.50240 | 116.42287 | 97 ft | 11 kts | 331° |
| 2026-04-17 13:05 | 39.50256 | 116.42230 | 97 ft | 6 kts | 249° |
| 2026-04-17 13:06 | 39.50234 | 116.42178 | 97 ft | 7 kts | 238° |
| 2026-04-17 13:06 | 39.50200 | 116.42091 | 97 ft | 13 kts | 253° |
| 2026-04-17 13:06 | 39.50183 | 116.41962 | 97 ft | 15 kts | 264° |
| 2026-04-17 13:06 | 39.50172 | 116.41828 | 97 ft | 14 kts | 264° |
| 2026-04-17 13:07 | 39.50160 | 116.41698 | 97 ft | 14 kts | 263° |
| 2026-04-17 13:07 | 39.50148 | 116.41569 | 97 ft | 14 kts | 263° |
| 2026-04-17 13:07 | 39.50190 | 116.41479 | 97 ft | 12 kts | 346° |
| 2026-04-17 13:07 | 39.50289 | 116.41462 | 97 ft | 15 kts | 353° |
| 2026-04-17 13:08 | 39.50404 | 116.41442 | 97 ft | 17 kts | 353° |
| 2026-04-17 13:08 | 39.50527 | 116.41419 | 97 ft | 18 kts | 343° |
| 2026-04-17 13:08 | 39.50644 | 116.41379 | 97 ft | 16 kts | 357° |
| 2026-04-17 13:08 | 39.50748 | 116.41338 | 97 ft | 15 kts | 343° |
| 2026-04-17 13:09 | 39.50786 | 116.41330 | 97 ft | 5 kts | 355° |
| 2026-04-17 13:09 | 39.50822 | 116.41325 | 97 ft | 0 kts | 355° |